sensor_id;sensor_type;location;lat;lon;timestamp;P1;durP1;ratioP1;P2;durP2;ratioP2
56239;SDS011;42154;51.992;5.896;2023-09-19T00:01:32;4.43;;;1.08;;
56239;SDS011;42154;51.992;5.896;2023-09-19T00:03:58;2.88;;;0.93;;
56239;SDS011;42154;51.992;5.896;2023-09-19T00:06:25;3.08;;;1.20;;
56239;SDS011;42154;51.992;5.896;2023-09-19T00:08:53;3.08;;;0.98;;
56239;SDS011;42154;51.992;5.896;2023-09-19T00:11:19;3.10;;;0.90;;
56239;SDS011;42154;51.992;5.896;2023-09-19T00:13:47;3.67;;;1.20;;
56239;SDS011;42154;51.992;5.896;2023-09-19T00:16:15;3.05;;;0.82;;
56239;SDS011;42154;51.992;5.896;2023-09-19T00:18:40;2.63;;;1.00;;
56239;SDS011;42154;51.992;5.896;2023-09-19T00:21:07;5.10;;;1.35;;
56239;SDS011;42154;51.992;5.896;2023-09-19T00:23:35;2.70;;;1.02;;
56239;SDS011;42154;51.992;5.896;2023-09-19T00:26:00;3.00;;;0.95;;
56239;SDS011;42154;51.992;5.896;2023-09-19T00:28:26;4.78;;;1.20;;
56239;SDS011;42154;51.992;5.896;2023-09-19T00:30:52;3.85;;;1.20;;
56239;SDS011;42154;51.992;5.896;2023-09-19T00:33:21;3.53;;;1.08;;
56239;SDS011;42154;51.992;5.896;2023-09-19T00:35:51;3.92;;;1.00;;
56239;SDS011;42154;51.992;5.896;2023-09-19T00:38:18;6.63;;;1.40;;
56239;SDS011;42154;51.992;5.896;2023-09-19T00:40:50;7.22;;;1.98;;
56239;SDS011;42154;51.992;5.896;2023-09-19T00:43:21;9.25;;;2.03;;
56239;SDS011;42154;51.992;5.896;2023-09-19T00:45:50;8.85;;;1.52;;
56239;SDS011;42154;51.992;5.896;2023-09-19T00:48:18;6.20;;;1.50;;
56239;SDS011;42154;51.992;5.896;2023-09-19T00:50:45;7.22;;;1.85;;
56239;SDS011;42154;51.992;5.896;2023-09-19T00:53:15;6.70;;;1.90;;
56239;SDS011;42154;51.992;5.896;2023-09-19T00:55:44;5.88;;;1.70;;
56239;SDS011;42154;51.992;5.896;2023-09-19T00:58:10;7.13;;;1.48;;
56239;SDS011;42154;51.992;5.896;2023-09-19T01:00:37;5.55;;;1.70;;
56239;SDS011;42154;51.992;5.896;2023-09-19T01:03:04;6.25;;;1.52;;
56239;SDS011;42154;51.992;5.896;2023-09-19T01:05:33;4.50;;;1.52;;
56239;SDS011;42154;51.992;5.896;2023-09-19T01:07:58;4.53;;;1.40;;
56239;SDS011;42154;51.992;5.896;2023-09-19T01:10:24;3.58;;;1.45;;
56239;SDS011;42154;51.992;5.896;2023-09-19T01:13:05;8.18;;;1.98;;
56239;SDS011;42154;51.992;5.896;2023-09-19T01:29:26;11.35;;;3.25;;
56239;SDS011;42154;51.992;5.896;2023-09-19T01:32:04;7.95;;;2.35;;
56239;SDS011;42154;51.992;5.896;2023-09-19T01:34:46;7.82;;;2.40;;
56239;SDS011;42154;51.992;5.896;2023-09-19T01:37:14;7.43;;;2.03;;
56239;SDS011;42154;51.992;5.896;2023-09-19T01:39:45;9.98;;;2.03;;
56239;SDS011;42154;51.992;5.896;2023-09-19T01:47:23;10.77;;;2.55;;
56239;SDS011;42154;51.992;5.896;2023-09-19T01:50:17;5.97;;;2.08;;
56239;SDS011;42154;51.992;5.896;2023-09-19T01:52:59;10.45;;;2.25;;
56239;SDS011;42154;51.992;5.896;2023-09-19T01:55:29;7.63;;;2.83;;
56239;SDS011;42154;51.992;5.896;2023-09-19T01:58:06;9.63;;;2.55;;
56239;SDS011;42154;51.992;5.896;2023-09-19T02:00:37;11.80;;;2.47;;
56239;SDS011;42154;51.992;5.896;2023-09-19T02:03:07;12.60;;;2.77;;
56239;SDS011;42154;51.992;5.896;2023-09-19T02:05:34;18.38;;;4.03;;
56239;SDS011;42154;51.992;5.896;2023-09-19T02:08:00;11.15;;;2.40;;
56239;SDS011;42154;51.992;5.896;2023-09-19T02:10:26;8.07;;;1.98;;
56239;SDS011;42154;51.992;5.896;2023-09-19T02:12:52;10.32;;;2.63;;
56239;SDS011;42154;51.992;5.896;2023-09-19T02:15:18;7.03;;;2.15;;
56239;SDS011;42154;51.992;5.896;2023-09-19T02:17:44;13.57;;;2.97;;
56239;SDS011;42154;51.992;5.896;2023-09-19T02:20:11;8.85;;;3.00;;
56239;SDS011;42154;51.992;5.896;2023-09-19T02:22:40;7.63;;;2.00;;
56239;SDS011;42154;51.992;5.896;2023-09-19T02:25:07;11.98;;;2.35;;
56239;SDS011;42154;51.992;5.896;2023-09-19T02:27:35;11.93;;;2.40;;
56239;SDS011;42154;51.992;5.896;2023-09-19T02:30:01;8.07;;;1.98;;
56239;SDS011;42154;51.992;5.896;2023-09-19T02:32:27;11.90;;;2.38;;
56239;SDS011;42154;51.992;5.896;2023-09-19T02:34:55;11.70;;;2.78;;
56239;SDS011;42154;51.992;5.896;2023-09-19T02:37:23;7.43;;;2.15;;
56239;SDS011;42154;51.992;5.896;2023-09-19T02:39:48;9.88;;;2.75;;
56239;SDS011;42154;51.992;5.896;2023-09-19T02:42:14;9.05;;;2.22;;
56239;SDS011;42154;51.992;5.896;2023-09-19T02:44:40;11.25;;;2.42;;
56239;SDS011;42154;51.992;5.896;2023-09-19T02:47:06;9.68;;;3.15;;
56239;SDS011;42154;51.992;5.896;2023-09-19T02:49:31;8.45;;;2.22;;
56239;SDS011;42154;51.992;5.896;2023-09-19T02:51:57;13.10;;;2.20;;
56239;SDS011;42154;51.992;5.896;2023-09-19T02:54:27;8.65;;;1.88;;
56239;SDS011;42154;51.992;5.896;2023-09-19T02:56:53;8.82;;;2.30;;
56239;SDS011;42154;51.992;5.896;2023-09-19T02:59:19;9.20;;;1.83;;
56239;SDS011;42154;51.992;5.896;2023-09-19T03:01:45;6.63;;;2.45;;
56239;SDS011;42154;51.992;5.896;2023-09-19T03:04:13;13.93;;;2.35;;
56239;SDS011;42154;51.992;5.896;2023-09-19T03:06:45;7.13;;;1.90;;
56239;SDS011;42154;51.992;5.896;2023-09-19T03:09:14;9.15;;;2.13;;
56239;SDS011;42154;51.992;5.896;2023-09-19T03:11:41;8.25;;;1.90;;
56239;SDS011;42154;51.992;5.896;2023-09-19T03:14:07;8.10;;;1.80;;
56239;SDS011;42154;51.992;5.896;2023-09-19T03:16:36;5.75;;;2.25;;
56239;SDS011;42154;51.992;5.896;2023-09-19T03:19:03;8.00;;;2.22;;
56239;SDS011;42154;51.992;5.896;2023-09-19T03:21:31;7.03;;;2.10;;
56239;SDS011;42154;51.992;5.896;2023-09-19T03:23:57;8.55;;;2.17;;
56239;SDS011;42154;51.992;5.896;2023-09-19T03:26:22;8.27;;;2.15;;
56239;SDS011;42154;51.992;5.896;2023-09-19T03:28:48;9.68;;;2.17;;
56239;SDS011;42154;51.992;5.896;2023-09-19T03:31:15;9.70;;;2.13;;
56239;SDS011;42154;51.992;5.896;2023-09-19T03:33:41;7.88;;;2.13;;
56239;SDS011;42154;51.992;5.896;2023-09-19T03:36:07;6.40;;;2.00;;
56239;SDS011;42154;51.992;5.896;2023-09-19T03:38:33;6.90;;;1.88;;
56239;SDS011;42154;51.992;5.896;2023-09-19T03:41:00;10.20;;;2.15;;
56239;SDS011;42154;51.992;5.896;2023-09-19T03:43:27;9.93;;;2.63;;
56239;SDS011;42154;51.992;5.896;2023-09-19T03:45:53;11.07;;;2.38;;
56239;SDS011;42154;51.992;5.896;2023-09-19T03:48:22;9.20;;;1.97;;
56239;SDS011;42154;51.992;5.896;2023-09-19T03:50:50;8.77;;;2.20;;
56239;SDS011;42154;51.992;5.896;2023-09-19T03:53:16;4.57;;;1.95;;
56239;SDS011;42154;51.992;5.896;2023-09-19T03:55:44;9.07;;;2.20;;
56239;SDS011;42154;51.992;5.896;2023-09-19T03:58:11;9.60;;;2.30;;
56239;SDS011;42154;51.992;5.896;2023-09-19T04:00:38;8.23;;;2.08;;
56239;SDS011;42154;51.992;5.896;2023-09-19T04:03:04;6.90;;;2.22;;
56239;SDS011;42154;51.992;5.896;2023-09-19T04:05:31;8.00;;;2.00;;
56239;SDS011;42154;51.992;5.896;2023-09-19T04:07:59;7.15;;;1.75;;
56239;SDS011;42154;51.992;5.896;2023-09-19T04:10:25;10.57;;;1.95;;
56239;SDS011;42154;51.992;5.896;2023-09-19T04:12:53;11.00;;;2.78;;
56239;SDS011;42154;51.992;5.896;2023-09-19T04:15:21;7.25;;;2.33;;
56239;SDS011;42154;51.992;5.896;2023-09-19T04:17:49;7.25;;;1.67;;
56239;SDS011;42154;51.992;5.896;2023-09-19T04:20:16;8.15;;;1.73;;
56239;SDS011;42154;51.992;5.896;2023-09-19T04:22:43;7.25;;;1.60;;
56239;SDS011;42154;51.992;5.896;2023-09-19T04:25:08;9.63;;;2.67;;
56239;SDS011;42154;51.992;5.896;2023-09-19T04:27:34;8.75;;;1.98;;
56239;SDS011;42154;51.992;5.896;2023-09-19T04:30:00;7.03;;;1.80;;
56239;SDS011;42154;51.992;5.896;2023-09-19T04:32:34;9.98;;;2.22;;
56239;SDS011;42154;51.992;5.896;2023-09-19T04:35:01;7.90;;;1.60;;
56239;SDS011;42154;51.992;5.896;2023-09-19T04:37:30;4.82;;;1.80;;
56239;SDS011;42154;51.992;5.896;2023-09-19T04:39:56;7.75;;;1.73;;
56239;SDS011;42154;51.992;5.896;2023-09-19T04:42:22;6.38;;;1.85;;
56239;SDS011;42154;51.992;5.896;2023-09-19T04:44:50;5.82;;;1.70;;
56239;SDS011;42154;51.992;5.896;2023-09-19T04:47:19;8.85;;;2.28;;
56239;SDS011;42154;51.992;5.896;2023-09-19T04:49:44;6.03;;;1.77;;
56239;SDS011;42154;51.992;5.896;2023-09-19T04:52:10;6.00;;;1.67;;
56239;SDS011;42154;51.992;5.896;2023-09-19T04:54:36;9.45;;;1.90;;
56239;SDS011;42154;51.992;5.896;2023-09-19T04:57:01;10.43;;;2.08;;
56239;SDS011;42154;51.992;5.896;2023-09-19T04:59:27;8.23;;;1.98;;
56239;SDS011;42154;51.992;5.896;2023-09-19T05:01:53;7.53;;;1.85;;
56239;SDS011;42154;51.992;5.896;2023-09-19T05:04:19;7.75;;;1.73;;
56239;SDS011;42154;51.992;5.896;2023-09-19T05:06:45;7.13;;;1.95;;
56239;SDS011;42154;51.992;5.896;2023-09-19T05:09:10;6.47;;;1.80;;
56239;SDS011;42154;51.992;5.896;2023-09-19T05:11:36;5.97;;;1.70;;
56239;SDS011;42154;51.992;5.896;2023-09-19T05:14:03;6.43;;;1.52;;
56239;SDS011;42154;51.992;5.896;2023-09-19T05:16:29;10.20;;;2.22;;
56239;SDS011;42154;51.992;5.896;2023-09-19T05:18:57;11.38;;;2.20;;
56239;SDS011;42154;51.992;5.896;2023-09-19T05:21:28;4.75;;;1.60;;
56239;SDS011;42154;51.992;5.896;2023-09-19T05:26:21;6.68;;;1.52;;
56239;SDS011;42154;51.992;5.896;2023-09-19T05:28:47;6.65;;;1.92;;
56239;SDS011;42154;51.992;5.896;2023-09-19T05:31:13;10.85;;;1.70;;
56239;SDS011;42154;51.992;5.896;2023-09-19T05:33:40;8.68;;;1.80;;
56239;SDS011;42154;51.992;5.896;2023-09-19T05:36:06;8.98;;;2.22;;
56239;SDS011;42154;51.992;5.896;2023-09-19T05:38:35;6.00;;;2.15;;
56239;SDS011;42154;51.992;5.896;2023-09-19T05:41:00;7.78;;;2.13;;
56239;SDS011;42154;51.992;5.896;2023-09-19T05:43:27;5.63;;;1.77;;
56239;SDS011;42154;51.992;5.896;2023-09-19T05:45:53;6.25;;;2.35;;
56239;SDS011;42154;51.992;5.896;2023-09-19T05:48:21;8.75;;;2.00;;
56239;SDS011;42154;51.992;5.896;2023-09-19T05:50:47;8.05;;;2.38;;
56239;SDS011;42154;51.992;5.896;2023-09-19T05:53:14;8.98;;;2.03;;
56239;SDS011;42154;51.992;5.896;2023-09-19T05:55:40;7.65;;;2.15;;
56239;SDS011;42154;51.992;5.896;2023-09-19T05:58:06;7.07;;;1.85;;
56239;SDS011;42154;51.992;5.896;2023-09-19T06:00:33;8.98;;;1.75;;
56239;SDS011;42154;51.992;5.896;2023-09-19T06:02:59;6.20;;;2.05;;
56239;SDS011;42154;51.992;5.896;2023-09-19T06:05:26;7.55;;;2.38;;
56239;SDS011;42154;51.992;5.896;2023-09-19T06:07:53;8.95;;;1.90;;
56239;SDS011;42154;51.992;5.896;2023-09-19T06:10:19;9.50;;;2.65;;
56239;SDS011;42154;51.992;5.896;2023-09-19T06:12:48;8.77;;;2.28;;
56239;SDS011;42154;51.992;5.896;2023-09-19T06:15:14;9.38;;;2.22;;
56239;SDS011;42154;51.992;5.896;2023-09-19T06:17:53;8.82;;;1.90;;
56239;SDS011;42154;51.992;5.896;2023-09-19T06:20:20;7.68;;;1.52;;
56239;SDS011;42154;51.992;5.896;2023-09-19T06:22:47;9.00;;;2.05;;
56239;SDS011;42154;51.992;5.896;2023-09-19T06:25:14;7.72;;;2.22;;
56239;SDS011;42154;51.992;5.896;2023-09-19T06:27:42;8.45;;;2.08;;
56239;SDS011;42154;51.992;5.896;2023-09-19T06:30:09;6.55;;;1.70;;
56239;SDS011;42154;51.992;5.896;2023-09-19T06:32:36;8.55;;;1.85;;
56239;SDS011;42154;51.992;5.896;2023-09-19T06:35:02;7.65;;;1.75;;
56239;SDS011;42154;51.992;5.896;2023-09-19T06:37:29;8.30;;;2.00;;
56239;SDS011;42154;51.992;5.896;2023-09-19T06:39:55;7.85;;;1.70;;
56239;SDS011;42154;51.992;5.896;2023-09-19T06:42:22;8.15;;;1.73;;
56239;SDS011;42154;51.992;5.896;2023-09-19T06:44:49;7.35;;;2.40;;
56239;SDS011;42154;51.992;5.896;2023-09-19T06:47:15;11.05;;;2.47;;
56239;SDS011;42154;51.992;5.896;2023-09-19T06:49:41;5.47;;;1.55;;
56239;SDS011;42154;51.992;5.896;2023-09-19T06:52:09;9.82;;;2.53;;
56239;SDS011;42154;51.992;5.896;2023-09-19T06:54:35;8.93;;;2.40;;
56239;SDS011;42154;51.992;5.896;2023-09-19T06:57:01;8.35;;;2.08;;
56239;SDS011;42154;51.992;5.896;2023-09-19T06:59:27;9.57;;;2.20;;
56239;SDS011;42154;51.992;5.896;2023-09-19T07:01:52;7.75;;;1.88;;
56239;SDS011;42154;51.992;5.896;2023-09-19T07:04:18;7.50;;;1.92;;
56239;SDS011;42154;51.992;5.896;2023-09-19T07:06:49;10.40;;;2.55;;
56239;SDS011;42154;51.992;5.896;2023-09-19T07:09:15;10.95;;;2.35;;
56239;SDS011;42154;51.992;5.896;2023-09-19T07:11:41;8.85;;;2.00;;
56239;SDS011;42154;51.992;5.896;2023-09-19T07:14:08;11.45;;;2.60;;
56239;SDS011;42154;51.992;5.896;2023-09-19T07:16:37;8.68;;;1.98;;
56239;SDS011;42154;51.992;5.896;2023-09-19T07:19:04;8.32;;;1.90;;
56239;SDS011;42154;51.992;5.896;2023-09-19T07:21:30;8.18;;;2.13;;
56239;SDS011;42154;51.992;5.896;2023-09-19T07:23:59;7.22;;;1.75;;
56239;SDS011;42154;51.992;5.896;2023-09-19T07:26:26;10.02;;;2.33;;
56239;SDS011;42154;51.992;5.896;2023-09-19T07:28:53;10.95;;;2.00;;
56239;SDS011;42154;51.992;5.896;2023-09-19T07:31:19;10.77;;;2.83;;
56239;SDS011;42154;51.992;5.896;2023-09-19T07:33:45;7.03;;;1.90;;
56239;SDS011;42154;51.992;5.896;2023-09-19T07:36:11;11.95;;;2.13;;
56239;SDS011;42154;51.992;5.896;2023-09-19T07:38:39;10.52;;;2.67;;
56239;SDS011;42154;51.992;5.896;2023-09-19T07:41:05;8.65;;;2.17;;
56239;SDS011;42154;51.992;5.896;2023-09-19T07:43:31;9.35;;;2.13;;
56239;SDS011;42154;51.992;5.896;2023-09-19T07:46:02;10.18;;;2.60;;
56239;SDS011;42154;51.992;5.896;2023-09-19T07:48:32;12.05;;;2.72;;
56239;SDS011;42154;51.992;5.896;2023-09-19T07:51:05;10.23;;;2.45;;
56239;SDS011;42154;51.992;5.896;2023-09-19T07:53:32;10.23;;;2.40;;
56239;SDS011;42154;51.992;5.896;2023-09-19T07:56:03;12.10;;;2.05;;
56239;SDS011;42154;51.992;5.896;2023-09-19T07:58:30;8.13;;;2.10;;
56239;SDS011;42154;51.992;5.896;2023-09-19T08:00:56;12.82;;;2.83;;
56239;SDS011;42154;51.992;5.896;2023-09-19T08:03:27;12.70;;;2.55;;
56239;SDS011;42154;51.992;5.896;2023-09-19T08:05:53;8.63;;;1.98;;
56239;SDS011;42154;51.992;5.896;2023-09-19T08:08:21;10.57;;;2.13;;
56239;SDS011;42154;51.992;5.896;2023-09-19T08:10:52;9.98;;;2.08;;
56239;SDS011;42154;51.992;5.896;2023-09-19T08:13:18;9.65;;;2.05;;
56239;SDS011;42154;51.992;5.896;2023-09-19T08:15:45;13.95;;;2.60;;
56239;SDS011;42154;51.992;5.896;2023-09-19T08:18:11;10.98;;;2.38;;
56239;SDS011;42154;51.992;5.896;2023-09-19T08:20:37;15.48;;;2.60;;
56239;SDS011;42154;51.992;5.896;2023-09-19T08:23:03;11.52;;;2.67;;
56239;SDS011;42154;51.992;5.896;2023-09-19T08:25:29;10.80;;;2.55;;
56239;SDS011;42154;51.992;5.896;2023-09-19T08:27:55;8.88;;;2.75;;
56239;SDS011;42154;51.992;5.896;2023-09-19T08:30:23;13.07;;;2.75;;
56239;SDS011;42154;51.992;5.896;2023-09-19T08:33:01;12.77;;;2.78;;
56239;SDS011;42154;51.992;5.896;2023-09-19T08:35:29;10.13;;;2.65;;
56239;SDS011;42154;51.992;5.896;2023-09-19T08:37:55;12.95;;;3.22;;
56239;SDS011;42154;51.992;5.896;2023-09-19T08:40:21;9.45;;;2.50;;
56239;SDS011;42154;51.992;5.896;2023-09-19T08:42:54;13.18;;;3.05;;
56239;SDS011;42154;51.992;5.896;2023-09-19T08:45:22;13.82;;;3.08;;
56239;SDS011;42154;51.992;5.896;2023-09-19T08:50:30;14.88;;;3.22;;
56239;SDS011;42154;51.992;5.896;2023-09-19T08:52:56;11.93;;;2.53;;
56239;SDS011;42154;51.992;5.896;2023-09-19T08:55:34;12.10;;;2.60;;
56239;SDS011;42154;51.992;5.896;2023-09-19T08:58:00;9.25;;;2.15;;
56239;SDS011;42154;51.992;5.896;2023-09-19T09:00:29;13.05;;;2.55;;
56239;SDS011;42154;51.992;5.896;2023-09-19T09:02:56;10.55;;;2.55;;
56239;SDS011;42154;51.992;5.896;2023-09-19T09:05:23;11.70;;;2.30;;
56239;SDS011;42154;51.992;5.896;2023-09-19T09:07:50;14.50;;;3.40;;
56239;SDS011;42154;51.992;5.896;2023-09-19T09:10:21;9.38;;;2.30;;
56239;SDS011;42154;51.992;5.896;2023-09-19T09:12:51;12.05;;;2.42;;
56239;SDS011;42154;51.992;5.896;2023-09-19T09:15:21;13.15;;;3.05;;
56239;SDS011;42154;51.992;5.896;2023-09-19T09:17:51;13.02;;;2.58;;
56239;SDS011;42154;51.992;5.896;2023-09-19T09:20:20;12.48;;;2.75;;
56239;SDS011;42154;51.992;5.896;2023-09-19T09:22:56;10.70;;;2.42;;
56239;SDS011;42154;51.992;5.896;2023-09-19T09:25:47;9.68;;;2.83;;
56239;SDS011;42154;51.992;5.896;2023-09-19T09:28:22;11.45;;;2.17;;
56239;SDS011;42154;51.992;5.896;2023-09-19T09:30:49;12.25;;;2.70;;
56239;SDS011;42154;51.992;5.896;2023-09-19T09:33:16;9.15;;;2.38;;
56239;SDS011;42154;51.992;5.896;2023-09-19T09:35:52;9.18;;;2.60;;
56239;SDS011;42154;51.992;5.896;2023-09-19T09:38:25;7.35;;;1.85;;
56239;SDS011;42154;51.992;5.896;2023-09-19T09:40:57;12.20;;;2.65;;
56239;SDS011;42154;51.992;5.896;2023-09-19T09:43:46;8.70;;;2.15;;
56239;SDS011;42154;51.992;5.896;2023-09-19T09:46:14;7.90;;;1.90;;
56239;SDS011;42154;51.992;5.896;2023-09-19T09:49:00;9.77;;;2.13;;
56239;SDS011;42154;51.992;5.896;2023-09-19T09:51:42;11.45;;;2.40;;
56239;SDS011;42154;51.992;5.896;2023-09-19T09:54:12;10.77;;;2.40;;
56239;SDS011;42154;51.992;5.896;2023-09-19T10:02:19;14.55;;;2.53;;
56239;SDS011;42154;51.992;5.896;2023-09-19T10:04:50;7.18;;;1.65;;
56239;SDS011;42154;51.992;5.896;2023-09-19T10:07:50;8.00;;;1.70;;
56239;SDS011;42154;51.992;5.896;2023-09-19T10:10:33;7.43;;;2.10;;
56239;SDS011;42154;51.992;5.896;2023-09-19T10:13:09;9.48;;;2.58;;
56239;SDS011;42154;51.992;5.896;2023-09-19T10:15:43;14.95;;;2.90;;
56239;SDS011;42154;51.992;5.896;2023-09-19T10:18:16;8.70;;;2.45;;
56239;SDS011;42154;51.992;5.896;2023-09-19T10:20:46;11.20;;;2.75;;
56239;SDS011;42154;51.992;5.896;2023-09-19T10:23:14;10.77;;;2.53;;
56239;SDS011;42154;51.992;5.896;2023-09-19T10:25:47;10.90;;;2.65;;
56239;SDS011;42154;51.992;5.896;2023-09-19T10:28:14;8.35;;;2.50;;
56239;SDS011;42154;51.992;5.896;2023-09-19T10:30:43;9.32;;;2.10;;
56239;SDS011;42154;51.992;5.896;2023-09-19T10:33:13;9.65;;;2.22;;
56239;SDS011;42154;51.992;5.896;2023-09-19T10:35:44;13.10;;;2.53;;
56239;SDS011;42154;51.992;5.896;2023-09-19T10:38:12;8.20;;;2.35;;
56239;SDS011;42154;51.992;5.896;2023-09-19T10:40:39;10.60;;;2.33;;
56239;SDS011;42154;51.992;5.896;2023-09-19T10:43:15;7.68;;;2.20;;
56239;SDS011;42154;51.992;5.896;2023-09-19T10:45:43;10.68;;;2.72;;
56239;SDS011;42154;51.992;5.896;2023-09-19T10:48:20;6.18;;;2.08;;
56239;SDS011;42154;51.992;5.896;2023-09-19T10:53:48;10.10;;;2.17;;
56239;SDS011;42154;51.992;5.896;2023-09-19T10:56:35;13.10;;;2.60;;
56239;SDS011;42154;51.992;5.896;2023-09-19T10:59:08;11.45;;;2.13;;
56239;SDS011;42154;51.992;5.896;2023-09-19T11:01:43;9.35;;;2.25;;
56239;SDS011;42154;51.992;5.896;2023-09-19T11:06:59;10.27;;;2.80;;
56239;SDS011;42154;51.992;5.896;2023-09-19T11:09:45;8.18;;;1.98;;
56239;SDS011;42154;51.992;5.896;2023-09-19T11:14:56;6.72;;;1.77;;
56239;SDS011;42154;51.992;5.896;2023-09-19T11:17:32;11.48;;;2.63;;
56239;SDS011;42154;51.992;5.896;2023-09-19T11:30:46;9.15;;;2.67;;
56239;SDS011;42154;51.992;5.896;2023-09-19T11:36:16;7.47;;;1.70;;
56239;SDS011;42154;51.992;5.896;2023-09-19T11:43:46;12.25;;;2.13;;
56239;SDS011;42154;51.992;5.896;2023-09-19T11:46:51;10.13;;;1.92;;
56239;SDS011;42154;51.992;5.896;2023-09-19T11:49:17;6.47;;;1.48;;
56239;SDS011;42154;51.992;5.896;2023-09-19T11:51:50;8.30;;;1.95;;
56239;SDS011;42154;51.992;5.896;2023-09-19T11:54:19;8.25;;;1.60;;
56239;SDS011;42154;51.992;5.896;2023-09-19T11:56:52;9.82;;;1.70;;
56239;SDS011;42154;51.992;5.896;2023-09-19T11:59:31;7.32;;;1.80;;
56239;SDS011;42154;51.992;5.896;2023-09-19T12:02:04;8.18;;;1.83;;
56239;SDS011;42154;51.992;5.896;2023-09-19T12:04:35;7.20;;;1.25;;
56239;SDS011;42154;51.992;5.896;2023-09-19T12:07:07;8.70;;;1.65;;
56239;SDS011;42154;51.992;5.896;2023-09-19T12:09:41;8.40;;;1.83;;
56239;SDS011;42154;51.992;5.896;2023-09-19T12:12:20;6.88;;;1.45;;
56239;SDS011;42154;51.992;5.896;2023-09-19T12:14:52;5.30;;;1.75;;
56239;SDS011;42154;51.992;5.896;2023-09-19T12:17:19;5.63;;;1.67;;
56239;SDS011;42154;51.992;5.896;2023-09-19T12:19:52;6.95;;;1.77;;
56239;SDS011;42154;51.992;5.896;2023-09-19T12:22:19;5.07;;;1.60;;
56239;SDS011;42154;51.992;5.896;2023-09-19T12:24:48;5.82;;;1.27;;
56239;SDS011;42154;51.992;5.896;2023-09-19T12:27:15;6.30;;;1.50;;
56239;SDS011;42154;51.992;5.896;2023-09-19T12:29:42;6.93;;;1.60;;
56239;SDS011;42154;51.992;5.896;2023-09-19T12:32:09;2.90;;;0.90;;
56239;SDS011;42154;51.992;5.896;2023-09-19T12:34:35;5.10;;;1.63;;
56239;SDS011;42154;51.992;5.896;2023-09-19T12:39:52;5.65;;;1.10;;
56239;SDS011;42154;51.992;5.896;2023-09-19T12:42:21;4.38;;;1.10;;
56239;SDS011;42154;51.992;5.896;2023-09-19T12:44:48;4.72;;;1.13;;
56239;SDS011;42154;51.992;5.896;2023-09-19T12:47:20;3.10;;;1.00;;
56239;SDS011;42154;51.992;5.896;2023-09-19T12:50:08;3.47;;;0.90;;
56239;SDS011;42154;51.992;5.896;2023-09-19T12:52:43;3.15;;;1.02;;
56239;SDS011;42154;51.992;5.896;2023-09-19T12:55:23;3.85;;;1.13;;
56239;SDS011;42154;51.992;5.896;2023-09-19T13:00:32;4.00;;;0.90;;
56239;SDS011;42154;51.992;5.896;2023-09-19T13:06:05;4.40;;;1.15;;
56239;SDS011;42154;51.992;5.896;2023-09-19T13:11:00;4.25;;;1.00;;
56239;SDS011;42154;51.992;5.896;2023-09-19T13:19:48;2.17;;;0.68;;
56239;SDS011;42154;51.992;5.896;2023-09-19T13:25:12;5.00;;;0.80;;
56239;SDS011;42154;51.992;5.896;2023-09-19T13:27:49;6.80;;;0.88;;
56239;SDS011;42154;51.992;5.896;2023-09-19T13:30:17;5.03;;;1.05;;
56239;SDS011;42154;51.992;5.896;2023-09-19T13:32:43;5.22;;;1.15;;
56239;SDS011;42154;51.992;5.896;2023-09-19T13:35:12;2.97;;;0.70;;
56239;SDS011;42154;51.992;5.896;2023-09-19T13:37:39;2.30;;;0.70;;
56239;SDS011;42154;51.992;5.896;2023-09-19T13:40:12;4.07;;;1.00;;
56239;SDS011;42154;51.992;5.896;2023-09-19T13:42:40;5.13;;;1.00;;
56239;SDS011;42154;51.992;5.896;2023-09-19T13:45:06;4.35;;;1.10;;
56239;SDS011;42154;51.992;5.896;2023-09-19T13:47:37;1.98;;;0.73;;
56239;SDS011;42154;51.992;5.896;2023-09-19T13:50:03;2.75;;;0.77;;
56239;SDS011;42154;51.992;5.896;2023-09-19T13:52:32;2.63;;;0.63;;
56239;SDS011;42154;51.992;5.896;2023-09-19T13:54:58;3.25;;;0.85;;
56239;SDS011;42154;51.992;5.896;2023-09-19T13:57:25;2.67;;;0.90;;
56239;SDS011;42154;51.992;5.896;2023-09-19T13:59:51;4.88;;;1.05;;
56239;SDS011;42154;51.992;5.896;2023-09-19T14:02:18;5.10;;;0.75;;
56239;SDS011;42154;51.992;5.896;2023-09-19T14:04:44;3.38;;;0.80;;
56239;SDS011;42154;51.992;5.896;2023-09-19T14:07:10;2.60;;;0.90;;
56239;SDS011;42154;51.992;5.896;2023-09-19T14:09:36;3.67;;;0.73;;
56239;SDS011;42154;51.992;5.896;2023-09-19T14:12:03;2.75;;;0.90;;
56239;SDS011;42154;51.992;5.896;2023-09-19T14:14:29;3.58;;;0.75;;
56239;SDS011;42154;51.992;5.896;2023-09-19T14:16:54;4.13;;;1.10;;
56239;SDS011;42154;51.992;5.896;2023-09-19T14:19:20;2.35;;;0.63;;
56239;SDS011;42154;51.992;5.896;2023-09-19T14:21:46;2.70;;;0.60;;
56239;SDS011;42154;51.992;5.896;2023-09-19T14:24:18;2.67;;;0.70;;
56239;SDS011;42154;51.992;5.896;2023-09-19T14:26:45;2.47;;;0.60;;
56239;SDS011;42154;51.992;5.896;2023-09-19T14:29:10;4.80;;;0.60;;
56239;SDS011;42154;51.992;5.896;2023-09-19T14:31:40;2.78;;;0.70;;
56239;SDS011;42154;51.992;5.896;2023-09-19T14:34:06;2.72;;;0.68;;
56239;SDS011;42154;51.992;5.896;2023-09-19T14:36:32;3.85;;;0.90;;
56239;SDS011;42154;51.992;5.896;2023-09-19T14:38:58;3.35;;;0.93;;
56239;SDS011;42154;51.992;5.896;2023-09-19T14:41:24;3.75;;;1.17;;
56239;SDS011;42154;51.992;5.896;2023-09-19T14:43:51;4.32;;;0.90;;
56239;SDS011;42154;51.992;5.896;2023-09-19T14:46:17;2.83;;;1.00;;
56239;SDS011;42154;51.992;5.896;2023-09-19T14:48:44;2.20;;;0.93;;
56239;SDS011;42154;51.992;5.896;2023-09-19T14:51:13;2.35;;;0.73;;
56239;SDS011;42154;51.992;5.896;2023-09-19T14:53:40;2.75;;;0.88;;
56239;SDS011;42154;51.992;5.896;2023-09-19T14:56:09;3.42;;;0.60;;
56239;SDS011;42154;51.992;5.896;2023-09-19T14:58:36;3.72;;;0.90;;
56239;SDS011;42154;51.992;5.896;2023-09-19T15:01:10;2.38;;;0.73;;
56239;SDS011;42154;51.992;5.896;2023-09-19T15:03:37;4.82;;;0.98;;
56239;SDS011;42154;51.992;5.896;2023-09-19T15:06:05;2.30;;;0.90;;
56239;SDS011;42154;51.992;5.896;2023-09-19T15:08:36;4.47;;;1.00;;
56239;SDS011;42154;51.992;5.896;2023-09-19T15:11:06;4.60;;;1.02;;
56239;SDS011;42154;51.992;5.896;2023-09-19T15:13:33;3.97;;;0.90;;
56239;SDS011;42154;51.992;5.896;2023-09-19T15:16:02;2.97;;;1.02;;
56239;SDS011;42154;51.992;5.896;2023-09-19T15:18:29;3.13;;;0.70;;
56239;SDS011;42154;51.992;5.896;2023-09-19T15:21:02;2.65;;;0.75;;
56239;SDS011;42154;51.992;5.896;2023-09-19T15:23:29;4.82;;;0.80;;
56239;SDS011;42154;51.992;5.896;2023-09-19T15:25:57;2.95;;;1.00;;
56239;SDS011;42154;51.992;5.896;2023-09-19T15:28:23;4.20;;;0.90;;
56239;SDS011;42154;51.992;5.896;2023-09-19T15:30:49;4.13;;;0.82;;
56239;SDS011;42154;51.992;5.896;2023-09-19T15:33:15;4.22;;;0.77;;
56239;SDS011;42154;51.992;5.896;2023-09-19T15:35:41;4.35;;;1.27;;
56239;SDS011;42154;51.992;5.896;2023-09-19T15:38:07;6.10;;;1.30;;
56239;SDS011;42154;51.992;5.896;2023-09-19T15:40:33;5.55;;;1.15;;
56239;SDS011;42154;51.992;5.896;2023-09-19T15:42:59;5.93;;;1.00;;
56239;SDS011;42154;51.992;5.896;2023-09-19T15:45:28;4.00;;;1.10;;
56239;SDS011;42154;51.992;5.896;2023-09-19T15:47:53;3.45;;;1.30;;
56239;SDS011;42154;51.992;5.896;2023-09-19T15:50:19;4.30;;;1.10;;
56239;SDS011;42154;51.992;5.896;2023-09-19T15:52:46;6.05;;;0.90;;
56239;SDS011;42154;51.992;5.896;2023-09-19T15:55:19;3.47;;;0.90;;
56239;SDS011;42154;51.992;5.896;2023-09-19T15:57:45;4.60;;;1.27;;
56239;SDS011;42154;51.992;5.896;2023-09-19T16:00:11;4.32;;;1.30;;
56239;SDS011;42154;51.992;5.896;2023-09-19T16:02:42;4.15;;;1.17;;
56239;SDS011;42154;51.992;5.896;2023-09-19T16:05:09;4.32;;;1.33;;
56239;SDS011;42154;51.992;5.896;2023-09-19T16:07:37;4.85;;;1.00;;
56239;SDS011;42154;51.992;5.896;2023-09-19T16:10:03;4.70;;;1.10;;
56239;SDS011;42154;51.992;5.896;2023-09-19T16:12:29;4.40;;;1.40;;